Terminal Aerodrome Forecast
Issued by NWS Flagstaff, AZ

Home | Current Version | Previous Version | Text Only | Print | Product List | Glossary On
Versions: 1 2 3 4 5 6 7 8 9 10 11 12
918
FTUS45 KFGZ 141130
TAFFLG
TAF
KFLG 141130Z 1412/1512 03004KT P6SM FEW250
     FM141800 03010G16KT P6SM SCT250
     FM150200 05007KT P6SM SCT250=

USA.gov is the U.S. government's official web portal to all federal, state and local government web resources and services.